Roslavl, Russia
Current Conditions -  °F | °C
As of 6:30 AM on Sunday 26 Oct 2014 (Local Time) from UUBW Reporting Station
Clear Clear  
Wind Chill: 17°   Ceiling: Unl
Heat Index: 23°   Visibility: 6mi
Dew Point: 14°   Wind: 4mph
Humidity: 68%   Direction: NA
Pressure: 30.59"   Gusts: NA
Location:  53.95°N, 32.86°E
Report Text: UUBW 260330Z VRB02MPS CAVOK M05/M10 Q1036 NOSIG
Loading
Personal Weather Stations






























Interactive Weather Map
Tropical Storm Tracking
New forecast layout! Learn more

10-Day Weather Forecast

Advertisements
Track Severe Weather on mobile